Terminal Aerodrome Forecast
Issued by NWS

Home | Current Version | Previous Version | Text Only | Print | Product List | Glossary On
Versions: 1 2 3 4 5 6 7 8 9 10 11 12 13 14 15 16 17 18 19 20 21 22 23 24
604
FTUS43 KDTX 181729
TAFMBS
TAF
KMBS 181729Z 1818/1918 19009KT P6SM SCT030
     FM182200 18006KT P6SM FEW025 BKN250
     FM190900 17009KT P6SM BKN025 BKN060 OVC100
     FM191200 19007KT 6SM -DZ BR BKN025 OVC050=

USA.gov is the U.S. government's official web portal to all federal, state and local government web resources and services.